Terminal Aerodrome Forecast
Issued by NWS

Home | Current Version | Previous Version | Text Only | Print | Product List | Glossary On
Versions: 1 2 3 4 5 6 7 8 9 10 11 12 13 14 15
000
FTUS44 KCRP 110739 AAB
TAFLRD
TAF AMD
KLRD 110739Z 1108/1206 VRB03KT 2SM -RADZ BR OVC004 WS020/17035KT
     FM111000 16004KT 2SM BR OVC002 WS020/18040KT
     FM111600 19008KT P6SM OVC012
     FM111900 16008KT P6SM BKN035
     FM120000 13005KT P6SM SCT050=

USA.gov is the U.S. government's official web portal to all federal, state and local government web resources and services.